Time;durP1;ratioP1;P1;durP2;ratioP2;P2;SDS_P1;SDS_P2;PMS_P1;PMS_P2;Temp;Humidity;BMP_temperature;BMP_pressure;BME280_temperature;BME280_humidity;BME280_pressure;Samples;Min_cycle;Max_cycle;Signal;HPM_P1;HPM_P2
2022/10/07 00:01:22;;;;;;;;;4.00;4.00;;;;;;;;5266587;28;8786;-69
2022/10/07 00:03:53;;;;;;;;;13.00;13.00;;;;;;;;5249784;28;8783;-70
2022/10/07 00:06:25;;;;;;;;;13.50;13.50;;;;;;;;5249888;28;8803;-70
2022/10/07 00:09:15;;;;;;;;;7.75;7.25;;;;;;;;5252452;28;8793;-69
2022/10/07 00:11:46;;;;;;;;;12.50;12.25;;;;;;;;5249072;28;8776;-69
2022/10/07 00:14:17;;;;;;;;;12.00;12.00;;;;;;;;5270478;28;8780;-69
2022/10/07 00:16:48;;;;;;;;;11.00;11.00;;;;;;;;5270868;28;8772;-69
2022/10/07 00:19:19;;;;;;;;;13.50;13.50;;;;;;;;5253536;28;9827;-69
2022/10/07 00:21:51;;;;;;;;;13.50;12.75;;;;;;;;5237063;28;8804;-69
2022/10/07 00:24:22;;;;;;;;;12.50;12.25;;;;;;;;5270856;28;8792;-69
2022/10/07 00:26:53;;;;;;;;;10.00;10.00;;;;;;;;5270328;28;8768;-69
2022/10/07 00:29:27;;;;;;;;;17.40;16.40;;;;;;;;5253740;28;8796;-69
2022/10/07 00:31:59;;;;;;;;;14.75;14.75;;;;;;;;5270322;28;8874;-69
2022/10/07 00:34:30;;;;;;;;;14.50;13.75;;;;;;;;5269657;28;8777;-69
2022/10/07 00:37:19;;;;;;;;;19.75;18.50;;;;;;;;5287153;28;8776;-69
2022/10/07 00:39:50;;;;;;;;;10.75;10.75;;;;;;;;5270504;28;9553;-70
2022/10/07 00:42:41;;;;;;;;;13.25;13.25;;;;;;;;5272003;28;8815;-70
2022/10/07 00:45:14;;;;;;;;;15.25;15.25;;;;;;;;5288287;28;8793;-70
2022/10/07 00:47:47;;;;;;;;;10.50;10.50;;;;;;;;5253366;28;9552;-70
2022/10/07 00:50:23;;;;;;;;;3.75;3.75;;;;;;;;5270181;28;8760;-70
2022/10/07 00:52:56;;;;;;;;;16.00;16.00;;;;;;;;5253596;28;8891;-71
2022/10/07 00:55:30;;;;;;;;;15.75;15.25;;;;;;;;5269507;28;8796;-70
2022/10/07 00:58:06;;;;;;;;;14.00;14.00;;;;;;;;5270650;28;9504;-70
2022/10/07 01:00:38;;;;;;;;;16.50;16.25;;;;;;;;5270502;28;8807;-70
2022/10/07 01:03:09;;;;;;;;;13.00;13.00;;;;;;;;5269912;28;9515;-71
2022/10/07 01:05:40;;;;;;;;;12.25;12.25;;;;;;;;5236484;28;8798;-70
2022/10/07 01:08:14;;;;;;;;;13.00;13.00;;;;;;;;5269665;28;8970;-70
2022/10/07 01:11:24;;;;;;;;;13.00;13.00;;;;;;;;5255371;28;8799;-70
2022/10/07 01:14:01;;;;;;;;;14.75;14.75;;;;;;;;5269654;28;8744;-71
2022/10/07 01:16:50;;;;;;;;;12.50;12.50;;;;;;;;5269996;28;8807;-69
2022/10/07 01:19:30;;;;;;;;;12.00;11.00;;;;;;;;5269976;28;8753;-70
2022/10/07 01:22:21;;;;;;;;;18.25;14.25;;;;;;;;5253195;28;8817;-70
2022/10/07 01:25:24;;;;;;;;;14.25;14.25;;;;;;;;5287873;28;8823;-69
2022/10/07 01:28:11;;;;;;;;;13.25;13.00;;;;;;;;5269674;28;8811;-69
2022/10/07 01:30:45;;;;;;;;;13.50;13.50;;;;;;;;5248534;28;8936;-70
2022/10/07 01:33:20;;;;;;;;;12.25;12.25;;;;;;;;5248866;28;8805;-70
2022/10/07 01:35:51;;;;;;;;;10.75;10.75;;;;;;;;5246038;28;8886;-70
2022/10/07 01:38:25;;;;;;;;;11.75;11.25;;;;;;;;5248650;28;8770;-70
2022/10/07 01:41:13;;;;;;;;;13.50;13.50;;;;;;;;5215492;28;8930;-71
2022/10/07 01:43:46;;;;;;;;;14.00;14.00;;;;;;;;5232403;28;8806;-68
2022/10/07 01:46:22;;;;;;;;;8.75;7.75;;;;;;;;5248584;28;8779;-68
2022/10/07 01:48:54;;;;;;;;;9.75;9.75;;;;;;;;5236078;28;8792;-68
2022/10/07 01:51:27;;;;;;;;;11.00;11.00;;;;;;;;5269470;28;8960;-68
2022/10/07 01:54:00;;;;;;;;;10.00;10.00;;;;;;;;5270201;28;8884;-68
2022/10/07 01:56:46;;;;;;;;;7.00;7.00;;;;;;;;5255931;28;8829;-68
2022/10/07 01:59:33;;;;;;;;;8.75;8.75;;;;;;;;5273364;28;8797;-68
2022/10/07 02:02:05;;;;;;;;;5.75;5.75;;;;;;;;5273098;28;9619;-68
2022/10/07 02:04:42;;;;;;;;;5.25;5.25;;;;;;;;5256131;28;8835;-68
2022/10/07 02:07:36;;;;;;;;;4.25;4.25;;;;;;;;5268766;28;8786;-68
2022/10/07 02:10:23;;;;;;;;;3.00;3.00;;;;;;;;5252456;28;8770;-68
2022/10/07 02:12:57;;;;;;;;;8.00;8.00;;;;;;;;5273414;28;8902;-68
2022/10/07 02:15:37;;;;;;;;;4.75;4.75;;;;;;;;5256000;28;8781;-68
2022/10/07 02:18:13;;;;;;;;;6.00;6.00;;;;;;;;5256274;28;8773;-68
2022/10/07 02:20:48;;;;;;;;;8.00;8.00;;;;;;;;5272810;28;8807;-69
2022/10/07 02:23:21;;;;;;;;;5.75;5.75;;;;;;;;5255974;28;8792;-68
2022/10/07 02:25:53;;;;;;;;;2.00;2.00;;;;;;;;5239069;28;8880;-68
2022/10/07 02:28:26;;;;;;;;;3.00;3.00;;;;;;;;5272404;28;8812;-70
2022/10/07 02:31:00;;;;;;;;;3.50;3.50;;;;;;;;5272773;28;8776;-69
2022/10/07 02:33:32;;;;;;;;;3.50;3.50;;;;;;;;5261725;28;8806;-69
2022/10/07 02:36:09;;;;;;;;;6.25;6.25;;;;;;;;5238729;28;8931;-69
2022/10/07 02:38:42;;;;;;;;;6.00;6.00;;;;;;;;5290814;28;8772;-68
2022/10/07 02:41:32;;;;;;;;;7.00;7.00;;;;;;;;5272470;28;8907;-69
2022/10/07 02:44:47;;;;;;;;;4.25;4.25;;;;;;;;5240023;28;8904;-70
2022/10/07 02:47:19;;;;;;;;;8.00;8.00;;;;;;;;5269914;28;9526;-71
2022/10/07 02:49:54;;;;;;;;;6.50;6.50;;;;;;;;5290003;28;8780;-70
2022/10/07 02:52:27;;;;;;;;;5.75;5.75;;;;;;;;5238420;28;8800;-71
2022/10/07 02:55:06;;;;;;;;;6.50;6.50;;;;;;;;5267638;28;8794;-70
2022/10/07 02:57:39;;;;;;;;;5.75;5.75;;;;;;;;5234414;28;8786;-70
2022/10/07 03:00:11;;;;;;;;;5.25;5.25;;;;;;;;5234213;28;8798;-69
2022/10/07 03:02:57;;;;;;;;;11.00;11.00;;;;;;;;5219677;28;8829;-69
2022/10/07 03:05:37;;;;;;;;;5.00;5.00;;;;;;;;5253423;28;8816;-69
2022/10/07 03:08:27;;;;;;;;;4.75;4.75;;;;;;;;5289997;28;8792;-70
2022/10/07 03:10:59;;;;;;;;;3.75;3.75;;;;;;;;5271240;28;8826;-70
2022/10/07 03:13:30;;;;;;;;;12.25;12.25;;;;;;;;5289614;28;8784;-69
2022/10/07 03:16:05;;;;;;;;;5.50;5.50;;;;;;;;5255165;28;8780;-70
2022/10/07 03:18:35;;;;;;;;;5.00;5.00;;;;;;;;5289660;28;8768;-69
2022/10/07 03:21:26;;;;;;;;;7.00;7.00;;;;;;;;5271621;28;8796;-70
2022/10/07 03:24:03;;;;;;;;;7.00;7.00;;;;;;;;5254863;28;8792;-69
2022/10/07 03:26:40;;;;;;;;;5.25;5.25;;;;;;;;5254941;28;8779;-71
2022/10/07 03:29:12;;;;;;;;;5.50;5.50;;;;;;;;5249844;28;8810;-71
2022/10/07 03:32:02;;;;;;;;;21.00;20.40;;;;;;;;5268443;28;8755;-70
2022/10/07 03:34:33;;;;;;;;;22.60;22.60;;;;;;;;5267859;28;8795;-69
2022/10/07 03:37:05;;;;;;;;;29.00;29.00;;;;;;;;5289443;28;8772;-70
2022/10/07 03:39:55;;;;;;;;;10.00;10.00;;;;;;;;5283546;28;8784;-69
2022/10/07 03:42:26;;;;;;;;;9.50;9.50;;;;;;;;5267983;28;8806;-68
2022/10/07 03:45:16;;;;;;;;;7.75;7.75;;;;;;;;5267825;28;8929;-68
2022/10/07 03:47:47;;;;;;;;;6.50;6.50;;;;;;;;5233510;28;8883;-69
2022/10/07 03:50:18;;;;;;;;;6.00;6.00;;;;;;;;5269567;28;9533;-69
2022/10/07 03:52:49;;;;;;;;;5.50;5.50;;;;;;;;5270479;28;8800;-70
2022/10/07 03:55:21;;;;;;;;;7.75;7.50;;;;;;;;5250422;28;8804;-70
2022/10/07 03:57:52;;;;;;;;;9.75;9.75;;;;;;;;5267930;28;8851;-71
2022/10/07 04:00:25;;;;;;;;;9.50;9.50;;;;;;;;5249634;28;9599;-70
2022/10/07 04:02:59;;;;;;;;;11.00;11.00;;;;;;;;5249379;28;8790;-70
2022/10/07 04:05:30;;;;;;;;;14.00;13.25;;;;;;;;5271619;28;8862;-70
2022/10/07 04:08:03;;;;;;;;;11.75;11.75;;;;;;;;5274977;28;8795;-70
2022/10/07 04:10:37;;;;;;;;;41.20;36.20;;;;;;;;5253928;28;8801;-70
2022/10/07 04:13:27;;;;;;;;;18.40;18.40;;;;;;;;5273019;28;9503;-71
2022/10/07 04:15:58;;;;;;;;;18.00;17.20;;;;;;;;5288779;28;8985;-71
2022/10/07 04:18:33;;;;;;;;;11.25;10.25;;;;;;;;5270050;28;8760;-69
2022/10/07 04:21:22;;;;;;;;;14.25;14.25;;;;;;;;5287959;28;8872;-69
2022/10/07 04:23:54;;;;;;;;;14.00;14.00;;;;;;;;5253610;28;8772;-70
2022/10/07 04:26:25;;;;;;;;;14.25;14.25;;;;;;;;5270222;28;8811;-74
2022/10/07 04:28:55;;;;;;;;;12.33;12.33;;;;;;;;5269935;28;8815;-71
2022/10/07 04:31:27;;;;;;;;;11.75;11.75;;;;;;;;5248770;28;8815;-71
2022/10/07 04:34:03;;;;;;;;;11.50;11.50;;;;;;;;5262146;28;8803;-74
2022/10/07 04:36:41;;;;;;;;;13.50;13.50;;;;;;;;5269850;28;8796;-72
2022/10/07 04:39:19;;;;;;;;;7.75;7.75;;;;;;;;5288279;28;9494;-72
2022/10/07 04:41:56;;;;;;;;;10.50;10.50;;;;;;;;5270941;28;8800;-72
2022/10/07 04:44:45;;;;;;;;;9.50;9.50;;;;;;;;5272645;28;8832;-72
2022/10/07 04:47:16;;;;;;;;;8.50;8.50;;;;;;;;5246603;28;8825;-73
2022/10/07 04:49:48;;;;;;;;;7.25;7.25;;;;;;;;5282695;28;8805;-77
2022/10/07 04:52:19;;;;;;;;;8.00;8.00;;;;;;;;5267842;28;8857;-76
2022/10/07 04:54:50;;;;;;;;;6.75;6.75;;;;;;;;5251312;28;8792;-75
2022/10/07 04:57:22;;;;;;;;;7.75;7.75;;;;;;;;5268291;28;8803;-75
2022/10/07 04:59:53;;;;;;;;;7.75;6.50;;;;;;;;5267949;28;8800;-75
2022/10/07 05:02:26;;;;;;;;;7.00;7.00;;;;;;;;5285592;28;8819;-75
2022/10/07 05:04:58;;;;;;;;;2.00;2.00;;;;;;;;5251274;28;8877;-75
2022/10/07 05:07:31;;;;;;;;;5.75;5.75;;;;;;;;5264752;28;8817;-75
2022/10/07 05:10:21;;;;;;;;;7.00;7.00;;;;;;;;5262960;28;8798;-77
2022/10/07 05:12:52;;;;;;;;;51.00;42.60;;;;;;;;5263570;28;8800;-75
2022/10/07 05:15:23;;;;;;;;;8.00;8.00;;;;;;;;5267789;28;8823;-76
2022/10/07 05:17:56;;;;;;;;;6.25;5.75;;;;;;;;5231708;28;8806;-74
2022/10/07 05:20:30;;;;;;;;;7.00;7.00;;;;;;;;5256532;28;8796;-75
2022/10/07 05:23:03;;;;;;;;;19.67;19.67;;;;;;;;5263716;28;9503;-76
2022/10/07 05:25:34;;;;;;;;;8.00;8.00;;;;;;;;5269649;28;8846;-75
2022/10/07 05:28:05;;;;;;;;;4.25;4.25;;;;;;;;5270328;28;8796;-76
2022/10/07 05:30:37;;;;;;;;;7.00;7.00;;;;;;;;5259741;28;9487;-78
2022/10/07 05:33:09;;;;;;;;;5.00;5.00;;;;;;;;5274261;28;8772;-73
2022/10/07 05:35:46;;;;;;;;;6.00;6.00;;;;;;;;5238131;28;9503;-74
2022/10/07 05:38:18;;;;;;;;;6.25;6.25;;;;;;;;5237887;28;8811;-73
2022/10/07 05:40:59;;;;;;;;;158.40;127.60;;;;;;;;5268961;28;9491;-73
2022/10/07 05:43:35;;;;;;;;;16.25;16.00;;;;;;;;5232047;28;10057;-73
2022/10/07 05:46:10;;;;;;;;;56.20;45.40;;;;;;;;5244565;28;8820;-74
2022/10/07 05:48:45;;;;;;;;;8.25;8.25;;;;;;;;5230166;28;8784;-77
2022/10/07 05:51:18;;;;;;;;;6.50;6.50;;;;;;;;5276479;28;8831;-74
2022/10/07 05:53:53;;;;;;;;;9.25;9.25;;;;;;;;5259467;28;8792;-73
2022/10/07 05:56:25;;;;;;;;;9.00;9.00;;;;;;;;5257817;28;8930;-75
2022/10/07 05:58:58;;;;;;;;;6.50;6.50;;;;;;;;5241114;28;8780;-73
2022/10/07 06:01:32;;;;;;;;;11.25;11.25;;;;;;;;5268070;28;9533;-72
2022/10/07 06:04:08;;;;;;;;;34.40;32.00;;;;;;;;5265250;28;8790;-72
2022/10/07 06:06:42;;;;;;;;;0.00;0.00;;;;;;;;5275707;28;8788;-72
2022/10/07 06:15:08;;;;;;;;;6.50;6.50;;;;;;;;5268918;28;8794;-72
2022/10/07 06:17:45;;;;;;;;;7.75;7.75;;;;;;;;5268971;28;8775;-72
2022/10/07 06:20:20;;;;;;;;;7.00;7.00;;;;;;;;5270372;28;8829;-72
2022/10/07 06:22:53;;;;;;;;;10.25;10.25;;;;;;;;5269242;28;8798;-72
2022/10/07 06:25:25;;;;;;;;;12.50;12.50;;;;;;;;5252271;28;8822;-72
2022/10/07 06:27:57;;;;;;;;;7.00;7.00;;;;;;;;5252007;28;8814;-72
2022/10/07 06:30:29;;;;;;;;;7.25;7.25;;;;;;;;5251852;28;8783;-72
2022/10/07 06:33:03;;;;;;;;;7.25;7.25;;;;;;;;5235396;28;8851;-72
2022/10/07 06:35:34;;;;;;;;;7.25;7.25;;;;;;;;5251756;28;8931;-72
2022/10/07 06:38:06;;;;;;;;;6.75;6.00;;;;;;;;5251807;28;8841;-73
2022/10/07 06:40:38;;;;;;;;;5.00;5.00;;;;;;;;5287398;28;8927;-73
2022/10/07 06:43:11;;;;;;;;;7.75;7.75;;;;;;;;5272015;28;8837;-73
2022/10/07 06:45:49;;;;;;;;;7.50;7.50;;;;;;;;5251748;28;8822;-73
2022/10/07 06:48:39;;;;;;;;;8.00;8.00;;;;;;;;5251691;28;8775;-73
2022/10/07 06:51:12;;;;;;;;;12.00;12.00;;;;;;;;5234612;28;8786;-73
2022/10/07 06:53:44;;;;;;;;;6.00;5.00;;;;;;;;5251260;28;8794;-72
2022/10/07 06:56:34;;;;;;;;;7.25;7.25;;;;;;;;5269550;28;8782;-72
2022/10/07 06:59:05;;;;;;;;;17.75;17.75;;;;;;;;5251589;28;8825;-72
2022/10/07 07:01:45;;;;;;;;;72.80;57.60;;;;;;;;5250981;28;8793;-73
2022/10/07 07:04:16;;;;;;;;;18.00;18.00;;;;;;;;5278833;28;9522;-72
2022/10/07 07:06:47;;;;;;;;;14.00;14.00;;;;;;;;5290699;28;8939;-72
2022/10/07 07:09:21;;;;;;;;;14.75;14.25;;;;;;;;5272012;28;8834;-72
2022/10/07 07:11:54;;;;;;;;;9.00;9.00;;;;;;;;5271764;28;8799;-72
2022/10/07 07:14:33;;;;;;;;;18.00;18.00;;;;;;;;5271798;28;8788;-72
2022/10/07 07:17:22;;;;;;;;;10.25;10.25;;;;;;;;5275138;28;8916;-72
2022/10/07 07:19:55;;;;;;;;;16.00;15.25;;;;;;;;5255336;28;8856;-72
2022/10/07 07:22:44;;;;;;;;;13.00;12.75;;;;;;;;5290212;28;8780;-72
2022/10/07 07:25:15;;;;;;;;;17.75;17.75;;;;;;;;5289222;28;8800;-72
2022/10/07 07:27:48;;;;;;;;;13.50;13.50;;;;;;;;5264313;28;8807;-71
2022/10/07 07:30:22;;;;;;;;;13.50;13.50;;;;;;;;5261580;28;8921;-73
2022/10/07 07:32:55;;;;;;;;;8.75;8.75;;;;;;;;5248815;28;8847;-73
2022/10/07 07:35:45;;;;;;;;;12.75;12.75;;;;;;;;5266943;28;8879;-73
2022/10/07 07:38:16;;;;;;;;;9.00;8.50;;;;;;;;5266605;28;8782;-73
2022/10/07 07:40:47;;;;;;;;;12.50;11.50;;;;;;;;5265431;28;8791;-76
2022/10/07 07:43:18;;;;;;;;;10.00;10.00;;;;;;;;5269130;28;8789;-75
2022/10/07 07:46:07;;;;;;;;;8.25;8.25;;;;;;;;5287756;28;8941;-73
2022/10/07 07:48:38;;;;;;;;;6.00;6.00;;;;;;;;5288384;28;8817;-73
2022/10/07 07:51:09;;;;;;;;;4.75;4.75;;;;;;;;5270316;28;8795;-73
2022/10/07 07:53:40;;;;;;;;;3.75;3.75;;;;;;;;5288055;28;8764;-73
2022/10/07 07:56:11;;;;;;;;;5.00;5.00;;;;;;;;5287234;28;8813;-73
2022/10/07 07:58:43;;;;;;;;;4.25;4.25;;;;;;;;5269052;28;10607;-73
2022/10/07 08:01:17;;;;;;;;;6.00;6.00;;;;;;;;5269147;28;8822;-75
2022/10/07 08:03:49;;;;;;;;;3.00;3.00;;;;;;;;5268716;28;8796;-73
2022/10/07 08:06:20;;;;;;;;;3.00;3.00;;;;;;;;5268592;28;8812;-73
2022/10/07 08:08:52;;;;;;;;;3.67;3.67;;;;;;;;5269203;28;8829;-73
2022/10/07 08:11:44;;;;;;;;;5.00;5.00;;;;;;;;5285865;28;8796;-77
2022/10/07 08:14:17;;;;;;;;;4.50;4.50;;;;;;;;5228861;28;8826;-74
2022/10/07 08:16:50;;;;;;;;;3.00;3.00;;;;;;;;5264640;28;8869;-72
2022/10/07 08:19:21;;;;;;;;;3.33;3.33;;;;;;;;5285358;28;8784;-73
2022/10/07 08:21:52;;;;;;;;;2.50;2.50;;;;;;;;5268059;28;10490;-73
2022/10/07 08:24:42;;;;;;;;;7.75;7.75;;;;;;;;5283482;28;8966;-72
2022/10/07 08:27:13;;;;;;;;;73.80;57.40;;;;;;;;5262577;28;8893;-72
2022/10/07 08:29:44;;;;;;;;;8.00;8.00;;;;;;;;5280355;28;8800;-72
2022/10/07 08:32:15;;;;;;;;;3.75;3.75;;;;;;;;5259577;28;8796;-74
2022/10/07 08:34:46;;;;;;;;;4.75;4.75;;;;;;;;5275487;28;9591;-72
2022/10/07 08:37:17;;;;;;;;;10.00;10.00;;;;;;;;5274898;28;8869;-74
2022/10/07 08:39:48;;;;;;;;;3.67;3.67;;;;;;;;5273132;28;8853;-74
2022/10/07 08:42:39;;;;;;;;;13.75;13.75;;;;;;;;5276639;28;8776;-74
2022/10/07 08:45:18;;;;;;;;;24.80;24.80;;;;;;;;5273405;28;8850;-74
2022/10/07 08:47:50;;;;;;;;;27.60;27.40;;;;;;;;5274431;28;8768;-74
2022/10/07 08:50:39;;;;;;;;;9.25;9.25;;;;;;;;5239872;28;8799;-74
2022/10/07 08:53:15;;;;;;;;;5.00;5.00;;;;;;;;5277485;28;8833;-72
2022/10/07 08:55:59;;;;;;;;;11.50;10.00;;;;;;;;5273862;28;8883;-72
2022/10/07 08:58:36;;;;;;;;;5.75;5.75;;;;;;;;5272786;28;8792;-72
2022/10/07 09:01:07;;;;;;;;;2.50;2.50;;;;;;;;5259303;28;8816;-72
2022/10/07 09:03:56;;;;;;;;;3.00;3.00;;;;;;;;5285531;28;8822;-71
2022/10/07 09:06:31;;;;;;;;;9.75;9.75;;;;;;;;5288420;28;12242;-74
2022/10/07 09:09:05;;;;;;;;;4.00;4.00;;;;;;;;5270735;28;8788;-73
2022/10/07 09:11:38;;;;;;;;;6.25;6.25;;;;;;;;5279956;28;8803;-71
2022/10/07 09:14:17;;;;;;;;;5.25;5.25;;;;;;;;5271871;28;8936;-73
2022/10/07 09:16:53;;;;;;;;;3.50;3.50;;;;;;;;5270117;28;8790;-72
2022/10/07 09:19:24;;;;;;;;;17.50;17.50;;;;;;;;5220703;28;8794;-73
2022/10/07 09:21:59;;;;;;;;;5.00;5.00;;;;;;;;5274076;28;8780;-73
2022/10/07 09:24:51;;;;;;;;;5.00;5.00;;;;;;;;5259277;28;8856;-73
2022/10/07 09:27:23;;;;;;;;;5.50;5.50;;;;;;;;5240118;28;8839;-73
2022/10/07 09:29:54;;;;;;;;;7.00;7.00;;;;;;;;5269031;28;8883;-72
2022/10/07 09:32:24;;;;;;;;;6.00;6.00;;;;;;;;5255385;28;8804;-74
2022/10/07 09:34:56;;;;;;;;;7.00;7.00;;;;;;;;5272204;28;11576;-74
2022/10/07 09:38:02;;;;;;;;;5.75;5.75;;;;;;;;5291227;28;9511;-73
2022/10/07 09:40:33;;;;;;;;;5.75;5.75;;;;;;;;5239204;28;8781;-72
2022/10/07 09:43:12;;;;;;;;;12.25;12.25;;;;;;;;5273509;28;8787;-71
2022/10/07 09:45:45;;;;;;;;;10.75;10.75;;;;;;;;5238144;28;8877;-71
2022/10/07 09:48:19;;;;;;;;;14.25;14.25;;;;;;;;5291676;28;9504;-72
2022/10/07 09:50:50;;;;;;;;;11.25;11.25;;;;;;;;5256466;28;9587;-71
2022/10/07 09:53:24;;;;;;;;;15.50;15.50;;;;;;;;5289532;28;8772;-72
2022/10/07 09:55:55;;;;;;;;;15.00;14.00;;;;;;;;5232790;28;8769;-72
2022/10/07 09:58:27;;;;;;;;;13.25;13.25;;;;;;;;5274825;28;8809;-74
2022/10/07 10:00:59;;;;;;;;;11.50;11.25;;;;;;;;5268976;28;8803;-74
2022/10/07 10:03:32;;;;;;;;;14.00;14.00;;;;;;;;5289408;28;8788;-73
2022/10/07 10:06:05;;;;;;;;;5.00;5.00;;;;;;;;5237603;28;9546;-73
2022/10/07 10:08:37;;;;;;;;;11.50;11.50;;;;;;;;5289248;28;8792;-74
2022/10/07 10:11:29;;;;;;;;;12.50;12.50;;;;;;;;5278649;28;8842;-75
2022/10/07 10:14:20;;;;;;;;;10.25;10.25;;;;;;;;5271393;28;8877;-71
2022/10/07 10:16:54;;;;;;;;;7.00;7.00;;;;;;;;5270955;28;8788;-73
2022/10/07 10:19:26;;;;;;;;;13.25;12.00;;;;;;;;5270744;28;8808;-73
2022/10/07 10:21:57;;;;;;;;;6.50;6.50;;;;;;;;5266077;28;8822;-74
2022/10/07 10:27:19;;;;;;;;;6.50;6.50;;;;;;;;5287028;28;9546;-73
2022/10/07 10:29:53;;;;;;;;;11.67;11.67;;;;;;;;5271824;28;8863;-73
2022/10/07 10:32:36;;;;;;;;;7.75;7.50;;;;;;;;5270803;28;11580;-73
2022/10/07 10:35:36;;;;;;;;;5.75;5.25;;;;;;;;5270200;28;8820;-73
2022/10/07 10:38:46;;;;;;;;;9.00;9.00;;;;;;;;5257983;28;8808;-72
2022/10/07 10:41:42;;;;;;;;;8.00;7.25;;;;;;;;5272310;28;8878;-73
2022/10/07 10:44:15;;;;;;;;;7.25;7.25;;;;;;;;5272130;28;8788;-72
2022/10/07 10:46:53;;;;;;;;;6.00;6.00;;;;;;;;5289092;28;8869;-72
2022/10/07 10:49:24;;;;;;;;;4.75;4.25;;;;;;;;5272065;28;9019;-72
2022/10/07 10:52:19;;;;;;;;;4.00;4.00;;;;;;;;5272155;28;8784;-72
2022/10/07 10:58:29;;;;;;;;;7.00;7.00;;;;;;;;5272052;28;8810;-73
2022/10/07 11:01:06;;;;;;;;;11.00;11.00;;;;;;;;5271894;28;8788;-73
2022/10/07 11:03:37;;;;;;;;;15.00;15.00;;;;;;;;5289848;28;8842;-73
2022/10/07 11:06:09;;;;;;;;;10.25;10.25;;;;;;;;5289223;28;8839;-73
2022/10/07 11:08:40;;;;;;;;;6.50;6.50;;;;;;;;5271900;28;8792;-73
2022/10/07 11:11:15;;;;;;;;;8.50;8.50;;;;;;;;5271592;28;9511;-73
2022/10/07 11:13:58;;;;;;;;;9.75;9.75;;;;;;;;5268335;28;8814;-73
2022/10/07 11:16:43;;;;;;;;;11.50;11.50;;;;;;;;5272357;28;8988;-72
2022/10/07 11:19:34;;;;;;;;;13.75;13.25;;;;;;;;5271834;28;8780;-72
2022/10/07 11:22:13;;;;;;;;;7.75;7.00;;;;;;;;5271870;28;8846;-72
2022/10/07 11:24:49;;;;;;;;;10.25;9.75;;;;;;;;5271967;28;8804;-72
2022/10/07 11:27:26;;;;;;;;;10.60;10.60;;;;;;;;5289128;28;8785;-72
2022/10/07 11:30:07;;;;;;;;;13.00;13.00;;;;;;;;5253658;28;8823;-72
2022/10/07 11:32:48;;;;;;;;;8.00;8.00;;;;;;;;5250094;28;8802;-72
2022/10/07 11:35:30;;;;;;;;;8.25;8.00;;;;;;;;5250340;28;8793;-72
2022/10/07 11:38:13;;;;;;;;;9.75;9.75;;;;;;;;5233526;28;8794;-72
2022/10/07 11:40:50;;;;;;;;;5.50;5.50;;;;;;;;5268658;28;9477;-72
2022/10/07 11:43:28;;;;;;;;;6.50;6.50;;;;;;;;5233745;28;9572;-72
2022/10/07 11:46:01;;;;;;;;;11.00;11.00;;;;;;;;5217065;28;8861;-73
2022/10/07 11:48:37;;;;;;;;;7.75;7.75;;;;;;;;5268116;28;8916;-73
2022/10/07 11:51:17;;;;;;;;;7.00;7.00;;;;;;;;5250285;28;8821;-73
2022/10/07 11:53:51;;;;;;;;;7.00;7.00;;;;;;;;5250809;28;8810;-74
2022/10/07 11:56:26;;;;;;;;;1.00;1.00;;;;;;;;5259120;28;8816;-72
2022/10/07 11:59:01;;;;;;;;;4.50;4.50;;;;;;;;5261099;28;8803;-70
2022/10/07 12:01:34;;;;;;;;;5.00;5.00;;;;;;;;5262345;28;8831;-75
2022/10/07 12:04:37;;;;;;;;;6.00;6.00;;;;;;;;5277161;28;8781;-72
2022/10/07 12:07:30;;;;;;;;;10.25;10.25;;;;;;;;5243714;28;8781;-72
2022/10/07 12:10:00;;;;;;;;;8.75;8.75;;;;;;;;5277075;28;8812;-76
2022/10/07 12:12:41;;;;;;;;;8.00;8.00;;;;;;;;5282925;28;8773;-73
2022/10/07 12:15:32;;;;;;;;;9.50;9.50;;;;;;;;5289167;28;8764;-73
2022/10/07 12:18:04;;;;;;;;;9.25;9.25;;;;;;;;5257809;28;8832;-73
2022/10/07 12:20:50;;;;;;;;;11.67;11.67;;;;;;;;5278083;28;8764;-72
2022/10/07 12:23:21;;;;;;;;;11.50;11.50;;;;;;;;5277151;28;8811;-74
2022/10/07 12:26:03;;;;;;;;;12.75;12.75;;;;;;;;5258763;28;8832;-75
2022/10/07 12:28:54;;;;;;;;;14.75;14.75;;;;;;;;5281771;28;8809;-73
2022/10/07 12:31:26;;;;;;;;;16.00;16.00;;;;;;;;5279155;28;8891;-71
2022/10/07 12:34:08;;;;;;;;;13.00;13.00;;;;;;;;5275476;28;8875;-73
2022/10/07 12:36:40;;;;;;;;;12.00;12.00;;;;;;;;5257389;28;8793;-72
2022/10/07 12:39:11;;;;;;;;;11.50;11.50;;;;;;;;5223504;28;8788;-75
2022/10/07 12:41:45;;;;;;;;;7.00;7.00;;;;;;;;5276907;28;8760;-73
2022/10/07 12:44:51;;;;;;;;;8.50;8.50;;;;;;;;5243040;28;9509;-76
2022/10/07 12:47:27;;;;;;;;;13.25;11.50;;;;;;;;5261553;28;8796;-71
2022/10/07 12:50:01;;;;;;;;;7.25;7.25;;;;;;;;5282430;28;8753;-71
2022/10/07 12:52:45;;;;;;;;;1.00;1.00;;;;;;;;5260032;28;8812;-72
2022/10/07 12:55:36;;;;;;;;;3.50;3.50;;;;;;;;5257114;28;8782;-72
2022/10/07 13:01:33;;;;;;;;;6.75;6.75;;;;;;;;5278755;28;8788;-74
2022/10/07 13:04:10;;;;;;;;;7.00;7.00;;;;;;;;5257361;28;8808;-74
2022/10/07 13:06:41;;;;;;;;;14.00;14.00;;;;;;;;5282161;28;8827;-72
2022/10/07 13:09:21;;;;;;;;;16.33;16.33;;;;;;;;5269507;28;8808;-74
2022/10/07 13:11:54;;;;;;;;;18.50;18.50;;;;;;;;5268340;28;11482;-72
2022/10/07 13:14:30;;;;;;;;;30.00;28.60;;;;;;;;5273135;28;8863;-73
2022/10/07 13:17:13;;;;;;;;;30.00;30.00;;;;;;;;5268524;28;8822;-73
2022/10/07 13:19:57;;;;;;;;;22.80;21.40;;;;;;;;5263026;28;8794;-72
2022/10/07 13:22:29;;;;;;;;;26.80;26.20;;;;;;;;5231922;28;9581;-72
2022/10/07 13:25:02;;;;;;;;;35.40;32.80;;;;;;;;5248358;28;9425;-72
2022/10/07 13:27:36;;;;;;;;;47.00;38.00;;;;;;;;5232194;28;8774;-72
2022/10/07 13:30:27;;;;;;;;;54.20;42.80;;;;;;;;5252033;28;8881;-72
2022/10/07 13:33:18;;;;;;;;;61.40;50.20;;;;;;;;5269264;28;8837;-72
2022/10/07 13:35:50;;;;;;;;;59.60;47.20;;;;;;;;5268880;28;8792;-72
2022/10/07 13:38:25;;;;;;;;;49.60;42.80;;;;;;;;5269191;28;8834;-72
2022/10/07 13:41:16;;;;;;;;;39.60;35.00;;;;;;;;5269346;28;8772;-73
2022/10/07 13:43:51;;;;;;;;;31.60;29.00;;;;;;;;5255461;28;8769;-72
2022/10/07 13:46:24;;;;;;;;;42.00;37.80;;;;;;;;5269438;28;8920;-71
2022/10/07 13:48:55;;;;;;;;;76.00;61.40;;;;;;;;5269862;28;8764;-70
2022/10/07 13:51:34;;;;;;;;;57.80;48.60;;;;;;;;5290666;28;8772;-70
2022/10/07 13:54:25;;;;;;;;;54.20;44.40;;;;;;;;5272684;28;8964;-71
2022/10/07 13:56:56;;;;;;;;;51.00;43.00;;;;;;;;5256272;28;8794;-72
2022/10/07 13:59:47;;;;;;;;;43.00;38.80;;;;;;;;5291426;28;8757;-72
2022/10/07 14:02:19;;;;;;;;;39.40;36.00;;;;;;;;5273011;28;9486;-72
2022/10/07 14:04:53;;;;;;;;;47.00;39.00;;;;;;;;5290757;28;8808;-71
2022/10/07 14:07:26;;;;;;;;;40.00;36.20;;;;;;;;5229794;28;8795;-71
2022/10/07 14:10:08;;;;;;;;;45.00;39.60;;;;;;;;5251450;28;8790;-70
2022/10/07 14:12:39;;;;;;;;;30.40;30.40;;;;;;;;5268413;28;8794;-71
2022/10/07 14:15:17;;;;;;;;;24.50;24.25;;;;;;;;5251663;28;8867;-73
2022/10/07 14:17:53;;;;;;;;;32.60;31.80;;;;;;;;5235346;28;11557;-70
2022/10/07 14:20:29;;;;;;;;;41.60;37.80;;;;;;;;5252589;28;8815;-70
2022/10/07 14:23:16;;;;;;;;;30.40;29.40;;;;;;;;5251834;28;8802;-70
2022/10/07 14:25:47;;;;;;;;;40.80;35.80;;;;;;;;5279961;28;8827;-71
2022/10/07 14:28:27;;;;;;;;;37.00;34.50;;;;;;;;5271830;28;8811;-70
2022/10/07 14:37:08;;;;;;;;;28.40;27.60;;;;;;;;5290607;28;8761;-70
2022/10/07 14:39:43;;;;;;;;;13.20;13.20;;;;;;;;5272455;28;8808;-71
2022/10/07 14:42:35;;;;;;;;;29.80;29.60;;;;;;;;5258517;28;8799;-71
2022/10/07 14:45:11;;;;;;;;;39.80;35.00;;;;;;;;5272076;28;8808;-71
2022/10/07 14:47:44;;;;;;;;;43.00;37.60;;;;;;;;5272197;28;9521;-71
2022/10/07 14:50:18;;;;;;;;;34.40;33.00;;;;;;;;5290468;28;8802;-71
2022/10/07 14:52:50;;;;;;;;;29.20;29.00;;;;;;;;5271920;28;8812;-71
2022/10/07 14:55:22;;;;;;;;;30.00;28.80;;;;;;;;5271938;28;8874;-71
2022/10/07 14:57:54;;;;;;;;;27.80;27.80;;;;;;;;5271976;28;8861;-71
2022/10/07 15:00:28;;;;;;;;;36.40;32.60;;;;;;;;5272017;28;8798;-71
2022/10/07 15:03:01;;;;;;;;;33.00;32.40;;;;;;;;5270365;28;8831;-72
2022/10/07 15:05:32;;;;;;;;;25.40;25.00;;;;;;;;5289971;28;8938;-70
2022/10/07 15:08:03;;;;;;;;;37.00;35.40;;;;;;;;5289753;28;9470;-71
2022/10/07 15:10:34;;;;;;;;;31.00;30.80;;;;;;;;5263757;28;8811;-71
2022/10/07 15:13:06;;;;;;;;;36.25;34.00;;;;;;;;5271598;28;8788;-71
2022/10/07 15:15:37;;;;;;;;;37.80;35.60;;;;;;;;5271211;28;11502;-71
2022/10/07 15:18:10;;;;;;;;;39.20;36.40;;;;;;;;5288890;28;8839;-70
2022/10/07 15:20:41;;;;;;;;;58.60;48.40;;;;;;;;5267383;28;8778;-71
2022/10/07 15:23:13;;;;;;;;;48.50;41.00;;;;;;;;5268679;28;8842;-70
2022/10/07 15:25:45;;;;;;;;;34.60;33.40;;;;;;;;5267748;28;9542;-70
2022/10/07 15:28:16;;;;;;;;;30.40;30.40;;;;;;;;5270776;28;8824;-70
2022/10/07 15:30:47;;;;;;;;;44.80;39.20;;;;;;;;5285269;28;8789;-70
2022/10/07 15:33:18;;;;;;;;;37.80;36.00;;;;;;;;5255847;28;8775;-70
2022/10/07 15:36:07;;;;;;;;;39.40;36.60;;;;;;;;5255012;28;8844;-71
2022/10/07 15:38:57;;;;;;;;;46.00;41.00;;;;;;;;5265413;28;8802;-71
2022/10/07 15:41:28;;;;;;;;;48.60;41.80;;;;;;;;5282902;28;8819;-71
2022/10/07 15:44:03;;;;;;;;;40.00;36.80;;;;;;;;5254541;28;8798;-71
2022/10/07 15:46:34;;;;;;;;;44.40;39.00;;;;;;;;5289082;28;8812;-71
2022/10/07 15:49:06;;;;;;;;;42.75;39.00;;;;;;;;5288901;28;9568;-71
2022/10/07 15:51:37;;;;;;;;;30.40;28.40;;;;;;;;5289347;28;8764;-71
2022/10/07 15:54:09;;;;;;;;;20.60;20.60;;;;;;;;5270845;28;8907;-71
2022/10/07 15:56:41;;;;;;;;;24.20;23.80;;;;;;;;5253770;28;8804;-70
2022/10/07 15:59:12;;;;;;;;;20.60;20.60;;;;;;;;5287962;28;8934;-71